aviador You're here:

OIZB Decoded Metar

ZABOL in IRAN
Report Time2017-08-23 04:00:00
UTC Time2017-08-23 04:17:43
Flight Rules vfr VFR
Wind340° at 21 Gusting to 33 kt
W.Decomp.*RWY 34: 21.0 kt HW 0.7 kt LCW
W.Rank340° ranks 3
Current wind is above 340° avg. (14.1)
Visibility9999 m
Phenomena:N/A
Clouds:N/A
Expected CloudBase > 12,400 ft AGL from Temp-Dew spread
CeilingNone
Temp29°C (ISA +17)
Dew Point-2°C (13% RH)
Heat Index27.4°C
AAT19.2°C
QNH1005 hPa
Density Alt3,914 ft
Elevation1,604 ft
Report Wrong Elevation
Raw Report
METAR OIZB 230400Z 34021G33KT CAVOK 29/M02 Q1005=

Extra information for OIZB:More info

Metar Taf Metar & Taf Last 4 Metars F.Rules Stats Wind Profile Meteogram Temp Stats Airport Information Weather charts Add Link Nearby VenuesMetar ALERT Operation Metar Decoded Social comments